sensor_id;sensor_type;location;lat;lon;timestamp;P1;P4;P2;P0;N10;N4;N25;N1;N05;TS
78730;SPS30;68055;51.978;5.658;2023-09-19T00:00:42;1.8;1.7;1.7;1.5;;;;1.0;63.0;
78730;SPS30;68055;51.978;5.658;2023-09-19T00:03:13;1.5;1.5;1.4;1.3;;;;1.0;65.0;
78730;SPS30;68055;51.978;5.658;2023-09-19T00:05:41;1.7;1.6;1.6;1.5;;;;1.0;64.0;
78730;SPS30;68055;51.978;5.658;2023-09-19T00:08:10;2.0;2.0;1.9;1.8;;;;1.0;66.0;
78730;SPS30;68055;51.978;5.658;2023-09-19T00:10:40;1.9;1.9;1.8;1.7;;;;1.0;59.0;
78730;SPS30;68055;51.978;5.658;2023-09-19T00:13:09;1.8;1.8;1.7;1.6;;;;1.0;53.0;
78730;SPS30;68055;51.978;5.658;2023-09-19T00:15:40;1.8;1.8;1.7;1.5;;;;1.0;51.0;
78730;SPS30;68055;51.978;5.658;2023-09-19T00:18:14;2.2;2.1;2.1;1.9;;;;1.0;56.0;
78730;SPS30;68055;51.978;5.658;2023-09-19T00:20:45;2.1;2.0;1.9;1.7;;;;1.0;59.0;
78730;SPS30;68055;51.978;5.658;2023-09-19T00:23:17;2.3;2.2;2.1;1.9;;;;1.0;59.0;
78730;SPS30;68055;51.978;5.658;2023-09-19T00:25:46;2.1;2.0;1.9;1.7;;;;1.0;57.0;
78730;SPS30;68055;51.978;5.658;2023-09-19T00:28:14;1.9;1.8;1.7;1.5;;;;1.0;55.0;
78730;SPS30;68055;51.978;5.658;2023-09-19T00:30:44;1.9;1.8;1.7;1.5;;;;2.0;51.0;
78730;SPS30;68055;51.978;5.658;2023-09-19T00:33:16;1.9;1.8;1.7;1.5;;;;2.0;51.0;
78730;SPS30;68055;51.978;5.658;2023-09-19T00:35:48;2.3;2.3;2.1;1.9;;;;2.0;52.0;
78730;SPS30;68055;51.978;5.658;2023-09-19T00:38:18;2.0;1.9;1.8;1.6;;;;2.0;62.0;
78730;SPS30;68055;51.978;5.658;2023-09-19T00:40:50;1.8;1.8;1.7;1.4;;;;2.0;63.0;
78730;SPS30;68055;51.978;5.658;2023-09-19T00:43:19;2.2;2.2;2.0;1.8;;;;2.0;62.0;
78730;SPS30;68055;51.978;5.658;2023-09-19T00:45:51;2.4;2.3;2.2;1.9;;;;2.0;61.0;
78730;SPS30;68055;51.978;5.658;2023-09-19T00:48:21;2.3;2.2;2.1;1.8;;;;2.0;58.0;
78730;SPS30;68055;51.978;5.658;2023-09-19T00:50:53;2.0;2.0;1.9;1.7;;;;2.0;61.0;
78730;SPS30;68055;51.978;5.658;2023-09-19T00:53:23;2.0;2.0;1.9;1.7;;;;2.0;60.0;
78730;SPS30;68055;51.978;5.658;2023-09-19T00:55:53;2.9;2.9;2.8;2.5;;;;2.0;59.0;
78730;SPS30;68055;51.978;5.658;2023-09-19T00:58:22;2.1;2.1;2.0;1.8;;;;2.0;60.0;
78730;SPS30;68055;51.978;5.658;2023-09-19T01:00:51;2.5;2.4;2.3;2.0;;;;2.0;60.0;
78730;SPS30;68055;51.978;5.658;2023-09-19T01:03:22;2.5;2.4;2.3;2.1;;;;2.0;62.0;
78730;SPS30;68055;51.978;5.658;2023-09-19T01:05:51;2.4;2.4;2.3;2.0;;;;2.0;66.0;
78730;SPS30;68055;51.978;5.658;2023-09-19T01:08:20;2.2;2.1;2.0;1.8;;;;2.0;70.0;
78730;SPS30;68055;51.978;5.658;2023-09-19T01:10:51;2.5;2.4;2.3;2.1;;;;1.0;69.0;
78730;SPS30;68055;51.978;5.658;2023-09-19T01:13:26;2.6;2.6;2.4;2.2;;;;1.0;66.0;
78730;SPS30;68055;51.978;5.658;2023-09-19T01:16:06;2.4;2.3;2.2;1.9;;;;1.0;65.0;
78730;SPS30;68055;51.978;5.658;2023-09-19T01:18:43;2.4;2.3;2.2;2.0;;;;1.0;64.0;
78730;SPS30;68055;51.978;5.658;2023-09-19T01:21:22;2.6;2.6;2.4;2.2;;;;1.0;65.0;
78730;SPS30;68055;51.978;5.658;2023-09-19T01:25:19;3.3;3.2;3.0;2.6;;;;1.0;65.0;
78730;SPS30;68055;51.978;5.658;2023-09-19T01:28:04;2.7;2.6;2.4;2.0;;;;1.0;66.0;
78730;SPS30;68055;51.978;5.658;2023-09-19T01:31:02;2.6;2.6;2.4;2.0;;;;1.0;64.0;
78730;SPS30;68055;51.978;5.658;2023-09-19T01:33:55;2.7;2.6;2.4;2.0;;;;1.0;68.0;
78730;SPS30;68055;51.978;5.658;2023-09-19T01:36:31;2.9;2.8;2.6;2.2;;;;1.0;69.0;
78730;SPS30;68055;51.978;5.658;2023-09-19T01:39:02;2.7;2.6;2.3;2.0;;;;1.0;68.0;
78730;SPS30;68055;51.978;5.658;2023-09-19T01:41:38;3.4;3.2;2.8;2.3;;;;1.0;63.0;
78730;SPS30;68055;51.978;5.658;2023-09-19T01:44:15;2.8;2.7;2.4;1.9;;;;1.0;65.0;
78730;SPS30;68055;51.978;5.658;2023-09-19T01:46:50;2.9;2.8;2.5;2.0;;;;1.0;62.0;
78730;SPS30;68055;51.978;5.658;2023-09-19T01:49:22;3.6;3.5;3.1;2.5;;;;1.0;55.0;
78730;SPS30;68055;51.978;5.658;2023-09-19T01:52:04;2.9;2.7;2.5;2.1;;;;1.0;54.0;
78730;SPS30;68055;51.978;5.658;2023-09-19T01:54:41;3.5;3.3;2.9;2.3;;;;1.0;51.0;
78730;SPS30;68055;51.978;5.658;2023-09-19T01:57:22;3.2;3.1;2.7;2.2;;;;2.0;51.0;
78730;SPS30;68055;51.978;5.658;2023-09-19T01:59:57;2.8;2.7;2.4;2.0;;;;2.0;51.0;
78730;SPS30;68055;51.978;5.658;2023-09-19T02:02:32;2.9;2.8;2.5;2.0;;;;2.0;54.0;
78730;SPS30;68055;51.978;5.658;2023-09-19T02:05:05;3.1;2.9;2.5;2.0;;;;2.0;54.0;
78730;SPS30;68055;51.978;5.658;2023-09-19T02:07:35;3.3;3.1;2.7;2.1;;;;2.0;53.0;
78730;SPS30;68055;51.978;5.658;2023-09-19T02:10:04;3.6;3.4;3.0;2.3;;;;2.0;59.0;
78730;SPS30;68055;51.978;5.658;2023-09-19T02:12:33;3.7;3.5;3.0;2.3;;;;2.0;61.0;
78730;SPS30;68055;51.978;5.658;2023-09-19T02:15:03;3.5;3.3;2.9;2.2;;;;2.0;58.0;
78730;SPS30;68055;51.978;5.658;2023-09-19T02:17:33;3.5;3.3;2.9;2.3;;;;2.0;58.0;
78730;SPS30;68055;51.978;5.658;2023-09-19T02:20:01;3.3;3.1;2.7;2.2;;;;2.0;58.0;
78730;SPS30;68055;51.978;5.658;2023-09-19T02:22:36;3.7;3.5;3.0;2.3;;;;2.0;58.0;
78730;SPS30;68055;51.978;5.658;2023-09-19T02:25:06;3.5;3.3;2.9;2.2;;;;2.0;58.0;
78730;SPS30;68055;51.978;5.658;2023-09-19T02:27:35;3.4;3.2;2.8;2.2;;;;2.0;58.0;
78730;SPS30;68055;51.978;5.658;2023-09-19T02:30:06;4.3;4.1;3.6;2.8;;;;2.0;58.0;
78730;SPS30;68055;51.978;5.658;2023-09-19T02:32:35;3.7;3.5;3.0;2.3;;;;2.0;58.0;
78730;SPS30;68055;51.978;5.658;2023-09-19T02:35:05;2.8;2.6;2.3;1.8;;;;2.0;58.0;
78730;SPS30;68055;51.978;5.658;2023-09-19T02:37:37;3.0;2.8;2.5;1.9;;;;2.0;56.0;
78730;SPS30;68055;51.978;5.658;2023-09-19T02:40:06;3.9;3.7;3.2;2.5;;;;2.0;56.0;
78730;SPS30;68055;51.978;5.658;2023-09-19T02:42:41;3.9;3.7;3.1;2.3;;;;2.0;57.0;
78730;SPS30;68055;51.978;5.658;2023-09-19T02:45:13;4.1;3.8;3.3;2.5;;;;2.0;57.0;
78730;SPS30;68055;51.978;5.658;2023-09-19T02:47:42;3.9;3.6;3.1;2.3;;;;2.0;57.0;
78730;SPS30;68055;51.978;5.658;2023-09-19T02:50:11;3.7;3.4;2.9;2.2;;;;2.0;59.0;
78730;SPS30;68055;51.978;5.658;2023-09-19T02:52:43;3.8;3.6;3.1;2.5;;;;2.0;58.0;
78730;SPS30;68055;51.978;5.658;2023-09-19T02:55:13;3.6;3.4;3.0;2.3;;;;2.0;57.0;
78730;SPS30;68055;51.978;5.658;2023-09-19T02:57:43;3.2;3.0;2.7;2.1;;;;2.0;54.0;
78730;SPS30;68055;51.978;5.658;2023-09-19T03:00:14;3.3;3.1;2.7;2.1;;;;2.0;51.0;
78730;SPS30;68055;51.978;5.658;2023-09-19T03:02:47;4.0;3.7;3.2;2.5;;;;2.0;50.0;
78730;SPS30;68055;51.978;5.658;2023-09-19T03:05:15;4.0;3.8;3.3;2.5;;;;2.0;49.0;
78730;SPS30;68055;51.978;5.658;2023-09-19T03:07:45;3.5;3.2;2.7;2.0;;;;2.0;47.0;
78730;SPS30;68055;51.978;5.658;2023-09-19T03:10:17;4.0;3.7;3.2;2.4;;;;2.0;48.0;
78730;SPS30;68055;51.978;5.658;2023-09-19T03:12:46;3.7;3.5;3.0;2.4;;;;2.0;47.0;
78730;SPS30;68055;51.978;5.658;2023-09-19T03:15:16;3.0;2.8;2.4;1.9;;;;2.0;43.0;
78730;SPS30;68055;51.978;5.658;2023-09-19T03:17:45;3.5;3.3;2.9;2.3;;;;2.0;44.0;
78730;SPS30;68055;51.978;5.658;2023-09-19T03:20:15;3.5;3.3;2.8;2.1;;;;2.0;47.0;
78730;SPS30;68055;51.978;5.658;2023-09-19T03:22:47;4.1;3.8;3.2;2.4;;;;2.0;49.0;
78730;SPS30;68055;51.978;5.658;2023-09-19T03:25:18;4.4;4.1;3.5;2.6;;;;2.0;47.0;
78730;SPS30;68055;51.978;5.658;2023-09-19T03:27:49;3.2;3.0;2.6;2.1;;;;2.0;45.0;
78730;SPS30;68055;51.978;5.658;2023-09-19T03:30:18;4.1;3.9;3.3;2.5;;;;2.0;46.0;
78730;SPS30;68055;51.978;5.658;2023-09-19T03:32:47;3.9;3.6;3.1;2.3;;;;2.0;45.0;
78730;SPS30;68055;51.978;5.658;2023-09-19T03:35:16;3.1;2.9;2.4;1.7;;;;2.0;46.0;
78730;SPS30;68055;51.978;5.658;2023-09-19T03:37:46;3.5;3.3;2.7;2.0;;;;2.0;47.0;
78730;SPS30;68055;51.978;5.658;2023-09-19T03:40:14;3.3;3.1;2.6;1.9;;;;2.0;49.0;
78730;SPS30;68055;51.978;5.658;2023-09-19T03:42:46;3.4;3.2;2.6;1.9;;;;2.0;50.0;
78730;SPS30;68055;51.978;5.658;2023-09-19T03:45:14;4.2;3.9;3.3;2.5;;;;2.0;49.0;
78730;SPS30;68055;51.978;5.658;2023-09-19T03:47:44;4.2;3.9;3.3;2.5;;;;2.0;50.0;
78730;SPS30;68055;51.978;5.658;2023-09-19T03:50:13;3.5;3.3;2.9;2.2;;;;2.0;49.0;
78730;SPS30;68055;51.978;5.658;2023-09-19T03:52:44;3.7;3.5;3.1;2.4;;;;2.0;48.0;
78730;SPS30;68055;51.978;5.658;2023-09-19T03:55:13;3.0;2.8;2.5;2.0;;;;2.0;47.0;
78730;SPS30;68055;51.978;5.658;2023-09-19T03:57:42;3.1;2.9;2.5;1.9;;;;2.0;48.0;
78730;SPS30;68055;51.978;5.658;2023-09-19T04:00:16;3.9;3.7;3.1;2.3;;;;2.0;48.0;
78730;SPS30;68055;51.978;5.658;2023-09-19T04:02:47;4.1;3.8;3.2;2.4;;;;2.0;48.0;
78730;SPS30;68055;51.978;5.658;2023-09-19T04:05:16;3.2;3.0;2.6;2.0;;;;2.0;48.0;
78730;SPS30;68055;51.978;5.658;2023-09-19T04:07:46;3.6;3.3;2.8;2.1;;;;2.0;50.0;
78730;SPS30;68055;51.978;5.658;2023-09-19T04:10:16;3.9;3.6;3.1;2.4;;;;2.0;51.0;
78730;SPS30;68055;51.978;5.658;2023-09-19T04:12:52;2.9;2.8;2.4;1.9;;;;2.0;51.0;
78730;SPS30;68055;51.978;5.658;2023-09-19T04:15:21;3.4;3.2;2.7;2.1;;;;2.0;52.0;
78730;SPS30;68055;51.978;5.658;2023-09-19T04:17:50;3.7;3.4;3.0;2.3;;;;2.0;59.0;
78730;SPS30;68055;51.978;5.658;2023-09-19T04:20:19;3.9;3.7;3.2;2.6;;;;2.0;61.0;
78730;SPS30;68055;51.978;5.658;2023-09-19T04:22:49;3.0;2.8;2.5;2.0;;;;2.0;57.0;
78730;SPS30;68055;51.978;5.658;2023-09-19T04:25:18;3.2;3.1;2.7;2.2;;;;2.0;57.0;
78730;SPS30;68055;51.978;5.658;2023-09-19T04:27:46;3.7;3.5;3.1;2.4;;;;2.0;57.0;
78730;SPS30;68055;51.978;5.658;2023-09-19T04:30:16;3.2;3.0;2.6;2.0;;;;2.0;54.0;
78730;SPS30;68055;51.978;5.658;2023-09-19T04:32:47;3.9;3.6;3.2;2.5;;;;2.0;52.0;
78730;SPS30;68055;51.978;5.658;2023-09-19T04:35:16;3.5;3.3;2.9;2.2;;;;2.0;52.0;
78730;SPS30;68055;51.978;5.658;2023-09-19T04:37:45;3.2;3.0;2.6;2.1;;;;2.0;51.0;
78730;SPS30;68055;51.978;5.658;2023-09-19T04:40:14;3.0;2.8;2.5;1.9;;;;2.0;50.0;
78730;SPS30;68055;51.978;5.658;2023-09-19T04:42:43;3.1;2.9;2.5;1.9;;;;2.0;52.0;
78730;SPS30;68055;51.978;5.658;2023-09-19T04:45:12;3.6;3.4;2.9;2.3;;;;2.0;57.0;
78730;SPS30;68055;51.978;5.658;2023-09-19T04:47:45;2.9;2.7;2.3;1.8;;;;2.0;60.0;
78730;SPS30;68055;51.978;5.658;2023-09-19T04:50:13;2.9;2.7;2.4;1.8;;;;2.0;61.0;
78730;SPS30;68055;51.978;5.658;2023-09-19T04:52:43;2.9;2.7;2.3;1.8;;;;2.0;60.0;
78730;SPS30;68055;51.978;5.658;2023-09-19T04:55:17;3.1;2.9;2.6;2.0;;;;2.0;58.0;
78730;SPS30;68055;51.978;5.658;2023-09-19T04:57:47;3.0;2.8;2.5;2.0;;;;2.0;56.0;
78730;SPS30;68055;51.978;5.658;2023-09-19T05:00:17;3.3;3.1;2.8;2.2;;;;2.0;53.0;
78730;SPS30;68055;51.978;5.658;2023-09-19T05:02:50;3.8;3.6;3.1;2.5;;;;2.0;52.0;
78730;SPS30;68055;51.978;5.658;2023-09-19T05:05:21;2.8;2.7;2.4;1.9;;;;2.0;48.0;
78730;SPS30;68055;51.978;5.658;2023-09-19T05:07:52;3.1;3.0;2.6;2.1;;;;2.0;47.0;
78730;SPS30;68055;51.978;5.658;2023-09-19T05:10:23;3.1;2.9;2.6;2.1;;;;2.0;48.0;
78730;SPS30;68055;51.978;5.658;2023-09-19T05:12:54;3.2;3.0;2.7;2.2;;;;2.0;50.0;
78730;SPS30;68055;51.978;5.658;2023-09-19T05:15:23;2.9;2.7;2.4;1.9;;;;2.0;56.0;
78730;SPS30;68055;51.978;5.658;2023-09-19T05:17:52;3.0;2.8;2.5;2.0;;;;2.0;88.0;
78730;SPS30;68055;51.978;5.658;2023-09-19T05:20:21;3.5;3.3;2.9;2.2;;;;2.0;76.0;
78730;SPS30;68055;51.978;5.658;2023-09-19T05:22:59;3.3;3.1;2.7;2.1;;;;2.0;72.0;
78730;SPS30;68055;51.978;5.658;2023-09-19T05:25:29;3.4;3.2;2.8;2.2;;;;2.0;69.0;
78730;SPS30;68055;51.978;5.658;2023-09-19T05:28:03;3.4;3.2;2.7;2.1;;;;2.0;64.0;
78730;SPS30;68055;51.978;5.658;2023-09-19T05:30:32;3.1;2.9;2.6;2.0;;;;2.0;64.0;
78730;SPS30;68055;51.978;5.658;2023-09-19T05:33:02;3.0;2.9;2.5;2.0;;;;2.0;60.0;
78730;SPS30;68055;51.978;5.658;2023-09-19T05:35:31;3.7;3.5;3.0;2.4;;;;2.0;68.0;
78730;SPS30;68055;51.978;5.658;2023-09-19T05:38:03;3.4;3.1;2.7;2.0;;;;2.0;68.0;
78730;SPS30;68055;51.978;5.658;2023-09-19T05:40:35;3.3;3.2;2.7;2.1;;;;2.0;120.0;
78730;SPS30;68055;51.978;5.658;2023-09-19T05:43:04;3.3;3.1;2.7;2.1;;;;2.0;87.0;
78730;SPS30;68055;51.978;5.658;2023-09-19T05:45:34;2.8;2.6;2.3;1.9;;;;2.0;78.0;
78730;SPS30;68055;51.978;5.658;2023-09-19T05:48:09;3.3;3.2;2.8;2.2;;;;2.0;67.0;
78730;SPS30;68055;51.978;5.658;2023-09-19T05:50:39;2.9;2.8;2.5;2.0;;;;2.0;64.0;
78730;SPS30;68055;51.978;5.658;2023-09-19T05:53:08;3.5;3.3;2.9;2.3;;;;2.0;53.0;
78730;SPS30;68055;51.978;5.658;2023-09-19T05:55:40;3.1;3.0;2.7;2.2;;;;2.0;51.0;
78730;SPS30;68055;51.978;5.658;2023-09-19T05:58:09;3.1;3.0;2.6;2.1;;;;2.0;51.0;
78730;SPS30;68055;51.978;5.658;2023-09-19T06:00:40;2.4;2.3;2.1;1.6;;;;2.0;52.0;
78730;SPS30;68055;51.978;5.658;2023-09-19T06:03:10;3.4;3.2;2.8;2.1;;;;2.0;53.0;
78730;SPS30;68055;51.978;5.658;2023-09-19T06:05:40;3.1;2.9;2.4;1.8;;;;2.0;52.0;
78730;SPS30;68055;51.978;5.658;2023-09-19T06:08:09;4.4;4.1;3.4;2.5;;;;2.0;55.0;
78730;SPS30;68055;51.978;5.658;2023-09-19T06:10:38;3.0;2.8;2.4;1.8;;;;2.0;73.0;
78730;SPS30;68055;51.978;5.658;2023-09-19T06:13:08;3.6;3.4;2.9;2.2;;;;2.0;74.0;
78730;SPS30;68055;51.978;5.658;2023-09-19T06:15:38;3.8;3.5;3.0;2.2;;;;2.0;156.0;
78730;SPS30;68055;51.978;5.658;2023-09-19T06:18:09;3.5;3.3;2.7;2.0;;;;2.0;95.0;
78730;SPS30;68055;51.978;5.658;2023-09-19T06:20:41;3.8;3.5;3.0;2.3;;;;2.0;104.0;
78730;SPS30;68055;51.978;5.658;2023-09-19T06:23:10;4.4;4.1;3.4;2.5;;;;2.0;74.0;
78730;SPS30;68055;51.978;5.658;2023-09-19T06:25:39;3.6;3.3;2.8;2.1;;;;2.0;70.0;
78730;SPS30;68055;51.978;5.658;2023-09-19T06:28:09;4.4;4.1;3.4;2.5;;;;2.0;71.0;
78730;SPS30;68055;51.978;5.658;2023-09-19T06:30:39;3.6;3.3;2.7;1.9;;;;2.0;72.0;
78730;SPS30;68055;51.978;5.658;2023-09-19T06:33:08;4.1;3.8;3.2;2.4;;;;2.0;73.0;
78730;SPS30;68055;51.978;5.658;2023-09-19T06:35:37;3.7;3.4;2.9;2.2;;;;2.0;74.0;
78730;SPS30;68055;51.978;5.658;2023-09-19T06:38:08;3.3;3.1;2.7;2.0;;;;2.0;71.0;
78730;SPS30;68055;51.978;5.658;2023-09-19T06:40:37;3.6;3.4;2.9;2.2;;;;2.0;72.0;
78730;SPS30;68055;51.978;5.658;2023-09-19T06:43:09;3.8;3.6;3.0;2.3;;;;2.0;74.0;
78730;SPS30;68055;51.978;5.658;2023-09-19T06:45:38;3.7;3.5;3.0;2.2;;;;2.0;76.0;
78730;SPS30;68055;51.978;5.658;2023-09-19T06:48:08;3.5;3.3;2.7;2.0;;;;2.0;88.0;
78730;SPS30;68055;51.978;5.658;2023-09-19T06:50:38;3.6;3.3;2.8;2.1;;;;2.0;85.0;
78730;SPS30;68055;51.978;5.658;2023-09-19T06:53:10;4.1;3.8;3.2;2.4;;;;2.0;82.0;
78730;SPS30;68055;51.978;5.658;2023-09-19T06:55:39;3.9;3.7;3.0;2.2;;;;2.0;75.0;
78730;SPS30;68055;51.978;5.658;2023-09-19T06:58:10;4.0;3.7;3.1;2.3;;;;2.0;60.0;
78730;SPS30;68055;51.978;5.658;2023-09-19T07:00:38;4.3;4.0;3.3;2.4;;;;2.0;59.0;
78730;SPS30;68055;51.978;5.658;2023-09-19T07:03:07;4.0;3.7;3.0;2.1;;;;2.0;62.0;
78730;SPS30;68055;51.978;5.658;2023-09-19T07:05:38;4.6;4.3;3.5;2.5;;;;2.0;63.0;
78730;SPS30;68055;51.978;5.658;2023-09-19T07:08:09;3.7;3.4;2.9;2.1;;;;2.0;62.0;
78730;SPS30;68055;51.978;5.658;2023-09-19T07:10:39;3.6;3.3;2.8;2.0;;;;2.0;62.0;
78730;SPS30;68055;51.978;5.658;2023-09-19T07:13:13;4.0;3.7;3.1;2.2;;;;2.0;63.0;
78730;SPS30;68055;51.978;5.658;2023-09-19T07:15:43;4.2;3.9;3.2;2.3;;;;2.0;66.0;
78730;SPS30;68055;51.978;5.658;2023-09-19T07:18:16;3.7;3.5;2.9;2.1;;;;2.0;70.0;
78730;SPS30;68055;51.978;5.658;2023-09-19T07:20:46;3.8;3.5;3.0;2.2;;;;2.0;72.0;
78730;SPS30;68055;51.978;5.658;2023-09-19T07:23:17;3.5;3.3;2.7;2.0;;;;2.0;77.0;
78730;SPS30;68055;51.978;5.658;2023-09-19T07:25:49;3.6;3.3;2.8;2.0;;;;2.0;75.0;
78730;SPS30;68055;51.978;5.658;2023-09-19T07:28:18;3.8;3.5;3.0;2.3;;;;2.0;73.0;
78730;SPS30;68055;51.978;5.658;2023-09-19T07:30:48;3.7;3.5;3.0;2.2;;;;2.0;71.0;
78730;SPS30;68055;51.978;5.658;2023-09-19T07:33:18;3.6;3.4;2.9;2.1;;;;2.0;71.0;
78730;SPS30;68055;51.978;5.658;2023-09-19T07:35:47;3.7;3.5;2.9;2.2;;;;2.0;67.0;
78730;SPS30;68055;51.978;5.658;2023-09-19T07:38:16;4.3;4.0;3.3;2.4;;;;2.0;248.0;
78730;SPS30;68055;51.978;5.658;2023-09-19T07:40:47;4.2;3.9;3.3;2.4;;;;2.0;86.0;
78730;SPS30;68055;51.978;5.658;2023-09-19T07:43:16;4.2;3.9;3.2;2.3;;;;2.0;93.0;
78730;SPS30;68055;51.978;5.658;2023-09-19T07:45:44;3.6;3.4;2.8;2.1;;;;2.0;70.0;
78730;SPS30;68055;51.978;5.658;2023-09-19T07:48:14;3.2;3.0;2.5;1.8;;;;2.0;62.0;
78730;SPS30;68055;51.978;5.658;2023-09-19T07:50:42;4.2;3.9;3.2;2.3;;;;2.0;66.0;
78730;SPS30;68055;51.978;5.658;2023-09-19T07:53:11;3.9;3.6;3.0;2.2;;;;2.0;69.0;
78730;SPS30;68055;51.978;5.658;2023-09-19T07:55:43;3.9;3.7;3.1;2.2;;;;2.0;71.0;
78730;SPS30;68055;51.978;5.658;2023-09-19T07:58:14;4.3;4.0;3.3;2.4;;;;2.0;70.0;
78730;SPS30;68055;51.978;5.658;2023-09-19T08:00:42;4.4;4.1;3.4;2.4;;;;1.0;66.0;
78730;SPS30;68055;51.978;5.658;2023-09-19T08:03:12;4.5;4.2;3.5;2.5;;;;1.0;65.0;
78730;SPS30;68055;51.978;5.658;2023-09-19T08:05:41;4.5;4.1;3.4;2.3;;;;1.0;66.0;
78730;SPS30;68055;51.978;5.658;2023-09-19T08:08:09;4.4;4.0;3.3;2.3;;;;1.0;66.0;
78730;SPS30;68055;51.978;5.658;2023-09-19T08:10:40;4.9;4.5;3.7;2.5;;;;1.0;64.0;
78730;SPS30;68055;51.978;5.658;2023-09-19T08:13:11;5.4;5.0;4.1;2.8;;;;1.0;64.0;
78730;SPS30;68055;51.978;5.658;2023-09-19T08:15:44;4.4;4.1;3.3;2.2;;;;1.0;65.0;
78730;SPS30;68055;51.978;5.658;2023-09-19T08:18:14;4.1;3.8;3.2;2.3;;;;1.0;82.0;
78730;SPS30;68055;51.978;5.658;2023-09-19T08:20:43;4.1;3.8;3.1;2.2;;;;1.0;80.0;
78730;SPS30;68055;51.978;5.658;2023-09-19T08:23:20;4.5;4.1;3.4;2.4;;;;1.0;77.0;
78730;SPS30;68055;51.978;5.658;2023-09-19T08:25:49;5.2;4.8;3.9;2.7;;;;1.0;76.0;
78730;SPS30;68055;51.978;5.658;2023-09-19T08:28:17;4.7;4.3;3.4;2.3;;;;1.0;80.0;
78730;SPS30;68055;51.978;5.658;2023-09-19T08:30:50;5.2;4.8;3.9;2.6;;;;1.0;79.0;
78730;SPS30;68055;51.978;5.658;2023-09-19T08:33:21;4.4;4.0;3.2;2.1;;;;1.0;85.0;
78730;SPS30;68055;51.978;5.658;2023-09-19T08:35:50;5.8;5.3;4.2;2.7;;;;1.0;83.0;
78730;SPS30;68055;51.978;5.658;2023-09-19T08:38:18;4.9;4.4;3.6;2.4;;;;1.0;93.0;
78730;SPS30;68055;51.978;5.658;2023-09-19T08:40:47;4.4;4.0;3.2;2.2;;;;1.0;92.0;
78730;SPS30;68055;51.978;5.658;2023-09-19T08:43:15;4.5;4.2;3.4;2.4;;;;1.0;92.0;
78730;SPS30;68055;51.978;5.658;2023-09-19T08:45:44;4.6;4.3;3.5;2.5;;;;1.0;90.0;
78730;SPS30;68055;51.978;5.658;2023-09-19T08:48:20;3.5;3.2;2.6;1.8;;;;1.0;88.0;
78730;SPS30;68055;51.978;5.658;2023-09-19T08:50:54;4.6;4.2;3.5;2.5;;;;1.0;88.0;
78730;SPS30;68055;51.978;5.658;2023-09-19T08:53:34;3.5;3.3;2.7;1.9;;;;1.0;99.0;
78730;SPS30;68055;51.978;5.658;2023-09-19T08:56:12;4.3;4.0;3.3;2.3;;;;1.0;97.0;
78730;SPS30;68055;51.978;5.658;2023-09-19T08:58:44;4.9;4.5;3.7;2.5;;;;1.0;98.0;
78730;SPS30;68055;51.978;5.658;2023-09-19T09:01:17;4.3;3.9;3.2;2.2;;;;1.0;98.0;
78730;SPS30;68055;51.978;5.658;2023-09-19T09:03:50;4.4;4.1;3.4;2.4;;;;1.0;96.0;
78730;SPS30;68055;51.978;5.658;2023-09-19T09:06:21;3.7;3.5;2.9;2.1;;;;1.0;97.0;
78730;SPS30;68055;51.978;5.658;2023-09-19T09:08:51;4.3;4.0;3.4;2.5;;;;1.0;105.0;
78730;SPS30;68055;51.978;5.658;2023-09-19T09:11:21;4.4;4.1;3.4;2.5;;;;1.0;101.0;
78730;SPS30;68055;51.978;5.658;2023-09-19T09:13:51;3.8;3.5;2.9;2.0;;;;1.0;91.0;
78730;SPS30;68055;51.978;5.658;2023-09-19T09:16:20;4.2;3.9;3.3;2.4;;;;1.0;90.0;
78730;SPS30;68055;51.978;5.658;2023-09-19T09:18:52;3.6;3.4;2.9;2.1;;;;1.0;92.0;
78730;SPS30;68055;51.978;5.658;2023-09-19T09:21:21;3.8;3.5;2.9;2.1;;;;1.0;81.0;
78730;SPS30;68055;51.978;5.658;2023-09-19T09:23:50;3.2;3.0;2.5;1.8;;;;1.0;80.0;
78730;SPS30;68055;51.978;5.658;2023-09-19T09:26:21;3.0;2.8;2.4;1.7;;;;1.0;76.0;
78730;SPS30;68055;51.978;5.658;2023-09-19T09:29:13;3.9;3.7;3.1;2.3;;;;1.0;68.0;
78730;SPS30;68055;51.978;5.658;2023-09-19T09:31:42;3.4;3.1;2.6;1.9;;;;1.0;68.0;
78730;SPS30;68055;51.978;5.658;2023-09-19T09:34:14;3.6;3.4;2.8;2.0;;;;1.0;158.0;
78730;SPS30;68055;51.978;5.658;2023-09-19T09:36:47;4.4;4.1;3.4;2.4;;;;1.0;131.0;
78730;SPS30;68055;51.978;5.658;2023-09-19T09:39:30;3.9;3.6;3.0;2.2;;;;1.0;99.0;
78730;SPS30;68055;51.978;5.658;2023-09-19T09:42:00;3.5;3.2;2.7;1.9;;;;1.0;73.0;
78730;SPS30;68055;51.978;5.658;2023-09-19T09:44:32;3.8;3.5;2.8;2.0;;;;1.0;67.0;
78730;SPS30;68055;51.978;5.658;2023-09-19T09:47:01;4.5;4.1;3.3;2.2;;;;1.0;71.0;
78730;SPS30;68055;51.978;5.658;2023-09-19T09:49:49;4.2;3.9;3.2;2.2;;;;1.0;103.0;
78730;SPS30;68055;51.978;5.658;2023-09-19T09:52:27;4.5;4.1;3.4;2.3;;;;1.0;91.0;
78730;SPS30;68055;51.978;5.658;2023-09-19T09:55:01;4.3;4.0;3.3;2.4;;;;1.0;74.0;
78730;SPS30;68055;51.978;5.658;2023-09-19T09:57:32;4.3;4.0;3.4;2.5;;;;1.0;70.0;
78730;SPS30;68055;51.978;5.658;2023-09-19T10:00:01;3.8;3.6;3.0;2.3;;;;1.0;69.0;
78730;SPS30;68055;51.978;5.658;2023-09-19T10:02:46;4.0;3.7;3.1;2.3;;;;1.0;92.0;
78730;SPS30;68055;51.978;5.658;2023-09-19T10:05:16;3.8;3.6;2.9;2.1;;;;1.0;89.0;
78730;SPS30;68055;51.978;5.658;2023-09-19T10:07:54;4.0;3.7;3.1;2.2;;;;1.0;86.0;
78730;SPS30;68055;51.978;5.658;2023-09-19T10:10:31;3.9;3.6;2.9;2.0;;;;1.0;80.0;
78730;SPS30;68055;51.978;5.658;2023-09-19T10:13:11;4.6;4.2;3.4;2.3;;;;1.0;82.0;
78730;SPS30;68055;51.978;5.658;2023-09-19T10:15:47;4.8;4.4;3.6;2.5;;;;1.0;85.0;
78730;SPS30;68055;51.978;5.658;2023-09-19T10:18:21;5.3;4.9;4.0;2.8;;;;1.0;82.0;
78730;SPS30;68055;51.978;5.658;2023-09-19T10:20:53;3.3;3.1;2.6;1.9;;;;1.0;74.0;
78730;SPS30;68055;51.978;5.658;2023-09-19T10:23:22;3.9;3.6;3.0;2.1;;;;1.0;75.0;
78730;SPS30;68055;51.978;5.658;2023-09-19T10:25:52;4.1;3.8;3.1;2.2;;;;1.0;79.0;
78730;SPS30;68055;51.978;5.658;2023-09-19T10:28:21;4.9;4.5;3.7;2.6;;;;1.0;76.0;
78730;SPS30;68055;51.978;5.658;2023-09-19T10:30:51;3.7;3.4;2.8;2.0;;;;1.0;78.0;
78730;SPS30;68055;51.978;5.658;2023-09-19T10:33:21;4.1;3.8;3.1;2.2;;;;1.0;81.0;
78730;SPS30;68055;51.978;5.658;2023-09-19T10:35:52;3.0;2.8;2.4;1.8;;;;1.0;85.0;
78730;SPS30;68055;51.978;5.658;2023-09-19T10:38:23;4.0;3.7;3.2;2.4;;;;1.0;90.0;
78730;SPS30;68055;51.978;5.658;2023-09-19T10:40:55;4.1;3.8;3.2;2.3;;;;1.0;88.0;
78730;SPS30;68055;51.978;5.658;2023-09-19T10:43:28;3.3;3.1;2.7;2.0;;;;1.0;88.0;
78730;SPS30;68055;51.978;5.658;2023-09-19T10:46:00;3.9;3.6;3.1;2.4;;;;1.0;87.0;
78730;SPS30;68055;51.978;5.658;2023-09-19T10:48:31;3.8;3.6;3.0;2.3;;;;1.0;87.0;
78730;SPS30;68055;51.978;5.658;2023-09-19T10:51:04;3.5;3.3;2.8;2.1;;;;1.0;93.0;
78730;SPS30;68055;51.978;5.658;2023-09-19T10:53:41;3.2;3.0;2.6;2.0;;;;1.0;95.0;
78730;SPS30;68055;51.978;5.658;2023-09-19T10:56:19;2.9;2.7;2.4;1.8;;;;1.0;87.0;
78730;SPS30;68055;51.978;5.658;2023-09-19T10:58:54;3.6;3.4;2.9;2.3;;;;1.0;87.0;
78730;SPS30;68055;51.978;5.658;2023-09-19T11:01:43;3.1;2.9;2.5;1.9;;;;1.0;83.0;
78730;SPS30;68055;51.978;5.658;2023-09-19T11:04:26;3.2;3.0;2.6;2.0;;;;1.0;74.0;
78730;SPS30;68055;51.978;5.658;2023-09-19T11:07:02;3.4;3.2;2.8;2.1;;;;1.0;89.0;
78730;SPS30;68055;51.978;5.658;2023-09-19T11:09:48;3.1;2.9;2.5;2.0;;;;1.0;88.0;
78730;SPS30;68055;51.978;5.658;2023-09-19T11:24:33;2.7;2.6;2.3;1.9;;;;1.0;118.0;
78730;SPS30;68055;51.978;5.658;2023-09-19T11:27:11;2.5;2.4;2.2;1.8;;;;1.0;108.0;
78730;SPS30;68055;51.978;5.658;2023-09-19T11:29:43;2.7;2.6;2.3;1.9;;;;1.0;97.0;
78730;SPS30;68055;51.978;5.658;2023-09-19T11:32:13;2.6;2.5;2.2;1.7;;;;1.0;94.0;
78730;SPS30;68055;51.978;5.658;2023-09-19T11:34:49;2.6;2.5;2.2;1.8;;;;1.0;104.0;
78730;SPS30;68055;51.978;5.658;2023-09-19T11:41:45;2.2;2.1;1.8;1.4;;;;1.0;94.0;
78730;SPS30;68055;51.978;5.658;2023-09-19T11:44:35;2.9;2.7;2.3;1.7;;;;1.0;92.0;
78730;SPS30;68055;51.978;5.658;2023-09-19T11:47:04;2.7;2.5;2.1;1.6;;;;1.0;138.0;
78730;SPS30;68055;51.978;5.658;2023-09-19T11:49:35;2.1;2.0;1.7;1.3;;;;1.0;116.0;
78730;SPS30;68055;51.978;5.658;2023-09-19T11:52:08;2.5;2.3;2.0;1.5;;;;1.0;81.0;
78730;SPS30;68055;51.978;5.658;2023-09-19T11:54:40;2.2;2.0;1.7;1.3;;;;1.0;86.0;
78730;SPS30;68055;51.978;5.658;2023-09-19T11:57:13;2.7;2.5;2.1;1.6;;;;1.0;84.0;
78730;SPS30;68055;51.978;5.658;2023-09-19T11:59:51;3.1;2.9;2.4;1.8;;;;1.0;87.0;
78730;SPS30;68055;51.978;5.658;2023-09-19T12:02:27;3.2;3.0;2.5;1.9;;;;1.0;88.0;
78730;SPS30;68055;51.978;5.658;2023-09-19T12:05:03;2.4;2.2;1.9;1.4;;;;1.0;89.0;
78730;SPS30;68055;51.978;5.658;2023-09-19T12:07:31;2.9;2.7;2.2;1.6;;;;1.0;91.0;
78730;SPS30;68055;51.978;5.658;2023-09-19T12:10:14;2.6;2.4;2.0;1.5;;;;1.0;91.0;
78730;SPS30;68055;51.978;5.658;2023-09-19T12:12:48;2.7;2.5;2.1;1.6;;;;1.0;94.0;
78730;SPS30;68055;51.978;5.658;2023-09-19T12:15:24;2.1;2.0;1.7;1.3;;;;1.0;98.0;
78730;SPS30;68055;51.978;5.658;2023-09-19T12:17:54;2.5;2.3;2.0;1.5;;;;1.0;95.0;
78730;SPS30;68055;51.978;5.658;2023-09-19T12:20:23;2.4;2.2;1.9;1.4;;;;1.0;91.0;
78730;SPS30;68055;51.978;5.658;2023-09-19T12:22:52;2.5;2.3;2.0;1.5;;;;1.0;92.0;
78730;SPS30;68055;51.978;5.658;2023-09-19T12:25:21;1.8;1.7;1.5;1.2;;;;1.0;199.0;
78730;SPS30;68055;51.978;5.658;2023-09-19T12:27:51;1.9;1.8;1.6;1.3;;;;1.0;144.0;
78730;SPS30;68055;51.978;5.658;2023-09-19T12:30:26;1.6;1.5;1.3;1.1;;;;1.0;86.0;
78730;SPS30;68055;51.978;5.658;2023-09-19T12:32:59;1.9;1.8;1.6;1.3;;;;1.0;84.0;
78730;SPS30;68055;51.978;5.658;2023-09-19T12:35:29;1.4;1.3;1.2;0.9;;;;1.0;95.0;
78730;SPS30;68055;51.978;5.658;2023-09-19T12:38:01;1.8;1.7;1.5;1.2;;;;1.0;93.0;
78730;SPS30;68055;51.978;5.658;2023-09-19T12:40:29;1.8;1.7;1.5;1.2;;;;1.0;96.0;
78730;SPS30;68055;51.978;5.658;2023-09-19T12:42:59;1.7;1.6;1.4;1.1;;;;1.0;126.0;
78730;SPS30;68055;51.978;5.658;2023-09-19T12:45:30;1.5;1.4;1.3;1.0;;;;1.0;173.0;
78730;SPS30;68055;51.978;5.658;2023-09-19T12:48:19;1.9;1.8;1.6;1.2;;;;1.0;139.0;
78730;SPS30;68055;51.978;5.658;2023-09-19T12:51:04;1.8;1.7;1.5;1.2;;;;1.0;109.0;